createdAt,value
2022-12-27T00:00:54.903Z,0.00
2022-12-27T00:01:54.861Z,0.00
2022-12-27T00:02:54.776Z,0.00
2022-12-27T00:03:54.672Z,0.00
2022-12-27T00:04:54.599Z,0.00
2022-12-27T00:05:54.815Z,0.00
2022-12-27T00:06:54.471Z,0.00
2022-12-27T00:07:54.399Z,0.00
2022-12-27T00:08:54.335Z,0.00
2022-12-27T00:09:54.280Z,0.00
2022-12-27T00:10:54.203Z,0.00
2022-12-27T00:11:59.819Z,0.00
2022-12-27T00:12:54.054Z,0.00
2022-12-27T00:13:54.003Z,0.00
2022-12-27T00:14:53.926Z,0.00
2022-12-27T00:15:53.856Z,0.00
2022-12-27T00:16:53.784Z,0.00
2022-12-27T00:17:53.720Z,0.00
2022-12-27T00:18:53.652Z,0.00
2022-12-27T00:19:53.619Z,0.00
2022-12-27T00:20:53.594Z,0.00
2022-12-27T00:21:53.458Z,0.00
2022-12-27T00:22:53.380Z,0.00
2022-12-27T00:23:53.336Z,0.00
2022-12-27T00:24:53.265Z,0.00
2022-12-27T00:25:53.177Z,0.00
2022-12-27T00:26:53.099Z,0.00
2022-12-27T00:27:53.036Z,0.00
2022-12-27T00:28:52.962Z,0.00
2022-12-27T00:29:52.896Z,0.00
2022-12-27T00:30:52.829Z,0.00
2022-12-27T00:31:52.796Z,0.00
2022-12-27T00:32:52.692Z,0.00
2022-12-27T00:33:52.734Z,0.00
2022-12-27T00:34:52.574Z,0.00
2022-12-27T00:35:52.494Z,0.00
2022-12-27T00:36:52.423Z,0.00
2022-12-27T00:37:52.368Z,0.00
2022-12-27T00:38:52.277Z,0.00
2022-12-27T00:39:52.217Z,0.00
2022-12-27T00:40:52.173Z,0.00
2022-12-27T00:41:52.078Z,0.00
2022-12-27T00:42:52.003Z,0.00
2022-12-27T00:43:51.958Z,0.00
2022-12-27T00:44:51.874Z,0.00
2022-12-27T00:45:51.830Z,0.00
2022-12-27T00:46:51.728Z,0.00
2022-12-27T00:47:51.672Z,0.00
2022-12-27T00:48:51.595Z,0.00
2022-12-27T00:49:51.536Z,0.00
2022-12-27T00:50:51.460Z,0.00
2022-12-27T00:51:51.390Z,0.00
2022-12-27T00:52:51.315Z,0.00
2022-12-27T00:53:51.251Z,0.00
2022-12-27T00:54:51.191Z,0.00
2022-12-27T00:55:51.113Z,0.00
2022-12-27T00:56:51.059Z,0.00
2022-12-27T00:57:50.976Z,0.00
2022-12-27T00:58:50.917Z,0.00
2022-12-27T00:59:50.835Z,0.00
2022-12-27T01:00:50.794Z,0.00
2022-12-27T01:01:50.860Z,0.00
2022-12-27T01:02:50.635Z,0.00
2022-12-27T01:03:50.629Z,0.00
2022-12-27T01:04:50.498Z,0.00
2022-12-27T01:05:50.439Z,0.00
2022-12-27T01:06:50.363Z,0.00
2022-12-27T01:07:50.290Z,0.00
2022-12-27T01:08:50.278Z,0.00
2022-12-27T01:09:50.155Z,0.00
2022-12-27T01:10:50.077Z,0.00
2022-12-27T01:11:50.017Z,0.00
2022-12-27T01:12:49.951Z,0.00
2022-12-27T01:13:49.882Z,0.00
2022-12-27T01:14:49.810Z,0.00
2022-12-27T01:15:49.731Z,0.00
2022-12-27T01:16:49.724Z,0.00
2022-12-27T01:17:49.599Z,0.00
2022-12-27T01:18:49.546Z,0.00
2022-12-27T01:19:49.457Z,0.00
2022-12-27T01:20:49.395Z,0.00
2022-12-27T01:21:49.337Z,0.00
2022-12-27T01:22:49.250Z,0.00
2022-12-27T01:23:49.177Z,0.00
2022-12-27T01:24:49.115Z,0.00
2022-12-27T01:25:49.056Z,0.00
2022-12-27T01:26:48.988Z,0.00
2022-12-27T01:27:48.911Z,0.00
2022-12-27T01:28:48.837Z,0.00
2022-12-27T01:29:48.798Z,0.00
2022-12-27T01:30:48.696Z,0.00
2022-12-27T01:31:48.698Z,0.00
2022-12-27T01:32:48.558Z,0.00
2022-12-27T01:33:48.496Z,0.00
2022-12-27T01:34:48.418Z,0.00
2022-12-27T01:35:48.351Z,0.00
2022-12-27T01:36:48.285Z,0.00
2022-12-27T01:37:48.213Z,0.00
2022-12-27T01:38:48.200Z,0.00
2022-12-27T01:39:48.070Z,0.00
2022-12-27T01:40:48.006Z,0.00
2022-12-27T01:41:47.933Z,0.00
2022-12-27T01:42:47.877Z,0.00
2022-12-27T01:43:47.795Z,0.00
2022-12-27T01:44:47.731Z,0.00
2022-12-27T01:45:47.677Z,0.00
2022-12-27T01:46:47.592Z,0.00
2022-12-27T01:47:47.527Z,0.00
2022-12-27T01:48:47.447Z,0.00
2022-12-27T01:49:47.376Z,0.00
2022-12-27T01:50:47.314Z,0.00
2022-12-27T01:51:47.259Z,0.00
2022-12-27T01:52:47.172Z,0.00
2022-12-27T01:53:47.111Z,0.00
2022-12-27T01:54:47.032Z,0.00
2022-12-27T01:55:47.005Z,0.00
2022-12-27T01:56:46.905Z,0.00
2022-12-27T01:57:46.823Z,0.00
2022-12-27T01:58:46.757Z,0.00
2022-12-27T01:59:46.696Z,0.00
2022-12-27T02:00:46.720Z,0.00
2022-12-27T02:01:46.599Z,0.00
2022-12-27T02:02:46.578Z,0.00
2022-12-27T02:03:46.415Z,0.00
2022-12-27T02:04:46.334Z,0.00
2022-12-27T02:05:46.263Z,0.00
2022-12-27T02:06:46.194Z,0.00
2022-12-27T02:07:46.136Z,0.00
2022-12-27T02:08:46.080Z,0.00
2022-12-27T02:09:46.005Z,0.00
2022-12-27T02:10:45.922Z,0.00
2022-12-27T02:11:45.856Z,0.00
2022-12-27T02:12:45.817Z,0.00
2022-12-27T02:13:45.710Z,0.00
2022-12-27T02:14:45.650Z,0.00
2022-12-27T02:15:45.569Z,0.00
2022-12-27T02:16:45.595Z,0.00
2022-12-27T02:17:45.433Z,0.00
2022-12-27T02:18:45.372Z,0.00
2022-12-27T02:19:45.293Z,0.00
2022-12-27T02:20:45.233Z,0.00
2022-12-27T02:21:45.154Z,0.00
2022-12-27T02:22:45.084Z,0.00
2022-12-27T02:23:45.015Z,0.00
2022-12-27T02:24:44.955Z,0.00
2022-12-27T02:25:44.879Z,0.00
2022-12-27T02:26:44.807Z,0.00
2022-12-27T02:27:44.767Z,0.00
2022-12-27T02:28:44.676Z,0.00
2022-12-27T02:29:44.597Z,0.00
2022-12-27T02:30:44.562Z,0.00
2022-12-27T02:31:44.458Z,0.00
2022-12-27T02:32:44.391Z,0.00
2022-12-27T02:33:44.329Z,0.00
2022-12-27T02:34:44.319Z,0.00
2022-12-27T02:35:44.178Z,0.00
2022-12-27T02:36:44.118Z,0.00
2022-12-27T02:37:44.048Z,0.00
2022-12-27T02:38:43.971Z,0.00
2022-12-27T02:39:43.911Z,0.00
2022-12-27T02:40:43.835Z,0.00
2022-12-27T02:41:43.769Z,0.00
2022-12-27T02:42:43.745Z,0.00
2022-12-27T02:43:43.623Z,0.00
2022-12-27T02:44:43.560Z,0.00
2022-12-27T02:45:43.562Z,0.00
2022-12-27T02:46:43.484Z,0.00
2022-12-27T02:47:43.350Z,0.00
2022-12-27T02:48:43.283Z,0.00
2022-12-27T02:49:43.221Z,0.00
2022-12-27T02:50:43.156Z,0.00
2022-12-27T02:51:43.070Z,0.00
2022-12-27T02:52:43.002Z,0.00
2022-12-27T02:53:42.929Z,0.00
2022-12-27T02:54:42.862Z,0.00
2022-12-27T02:55:42.798Z,0.00
2022-12-27T02:56:42.722Z,0.00
2022-12-27T02:57:42.651Z,0.00
2022-12-27T02:58:42.587Z,0.00
2022-12-27T02:59:42.508Z,0.00
2022-12-27T03:00:42.448Z,0.00
2022-12-27T03:01:42.474Z,0.00
2022-12-27T03:02:42.387Z,0.00
2022-12-27T03:03:44.713Z,0.00
2022-12-27T03:04:42.169Z,0.00
2022-12-27T03:05:42.088Z,0.00
2022-12-27T03:06:42.108Z,0.00
2022-12-27T03:07:41.974Z,0.00
2022-12-27T03:08:41.884Z,0.00
2022-12-27T03:09:41.828Z,0.00
2022-12-27T03:10:41.755Z,0.00
2022-12-27T03:11:41.805Z,0.00
2022-12-27T03:12:41.608Z,0.00
2022-12-27T03:13:41.559Z,0.00
2022-12-27T03:14:41.463Z,0.00
2022-12-27T03:15:41.414Z,0.00
2022-12-27T03:16:41.332Z,0.00
2022-12-27T03:17:41.256Z,0.00
2022-12-27T03:18:41.185Z,0.00
2022-12-27T03:19:41.171Z,0.00
2022-12-27T03:20:41.045Z,0.00
2022-12-27T03:21:40.984Z,0.00
2022-12-27T03:22:40.909Z,0.00
2022-12-27T03:23:40.831Z,0.00
2022-12-27T03:24:40.809Z,0.00
2022-12-27T03:25:40.747Z,0.00
2022-12-27T03:26:40.625Z,0.00
2022-12-27T03:27:40.677Z,0.00
2022-12-27T03:28:40.495Z,0.00
2022-12-27T03:29:40.415Z,0.00
2022-12-27T03:30:40.368Z,0.00
2022-12-27T03:31:40.299Z,0.00
2022-12-27T03:32:40.203Z,0.00
2022-12-27T03:33:40.133Z,0.00
2022-12-27T03:34:40.100Z,0.00
2022-12-27T03:35:40.007Z,0.00
2022-12-27T03:36:39.932Z,0.00
2022-12-27T03:37:39.852Z,0.00
2022-12-27T03:38:39.803Z,0.00
2022-12-27T03:39:39.713Z,0.00
2022-12-27T03:40:39.656Z,0.00
2022-12-27T03:41:39.601Z,0.00
2022-12-27T03:42:39.507Z,0.00
2022-12-27T03:43:39.438Z,0.00
2022-12-27T03:44:39.399Z,0.00
2022-12-27T03:45:39.295Z,0.00
2022-12-27T03:46:39.389Z,0.00
2022-12-27T03:47:39.153Z,0.00
2022-12-27T03:48:39.085Z,0.00
2022-12-27T03:49:39.020Z,0.00
2022-12-27T03:50:38.944Z,0.00
2022-12-27T03:51:38.977Z,0.00
2022-12-27T03:52:38.809Z,0.00
2022-12-27T03:53:38.749Z,0.00
2022-12-27T03:54:38.675Z,0.00
2022-12-27T03:55:38.597Z,0.00
2022-12-27T03:56:38.527Z,0.00
2022-12-27T03:57:38.459Z,0.00
2022-12-27T03:58:38.401Z,0.00
2022-12-27T03:59:38.316Z,0.00
2022-12-27T04:00:38.250Z,0.00
2022-12-27T04:01:38.265Z,0.00
2022-12-27T04:02:38.267Z,0.00
2022-12-27T04:03:38.081Z,0.00
2022-12-27T04:04:37.967Z,0.00
2022-12-27T04:05:37.895Z,0.00
2022-12-27T04:06:37.827Z,0.00
2022-12-27T04:07:37.771Z,0.00
2022-12-27T04:08:37.729Z,0.00
2022-12-27T04:09:37.615Z,0.00
2022-12-27T04:10:37.545Z,0.00
2022-12-27T04:11:37.477Z,0.00
2022-12-27T04:12:37.406Z,0.00
2022-12-27T04:13:37.335Z,0.00
2022-12-27T04:14:37.277Z,0.00
2022-12-27T04:15:37.208Z,0.00
2022-12-27T04:16:37.141Z,0.00
2022-12-27T04:17:37.076Z,0.00
2022-12-27T04:18:36.990Z,0.00
2022-12-27T04:19:36.916Z,0.00
2022-12-27T04:20:36.843Z,0.00
2022-12-27T04:21:36.773Z,0.00
2022-12-27T04:22:36.727Z,0.00
2022-12-27T04:23:36.633Z,0.00
2022-12-27T04:24:36.566Z,0.00
2022-12-27T04:25:36.495Z,0.00
2022-12-27T04:26:36.432Z,0.00
2022-12-27T04:27:36.369Z,0.00
2022-12-27T04:28:36.294Z,0.00
2022-12-27T04:29:36.224Z,0.00
2022-12-27T04:30:36.141Z,0.00
2022-12-27T04:31:36.226Z,0.00
2022-12-27T04:32:36.003Z,0.00
2022-12-27T04:33:35.934Z,0.00
2022-12-27T04:34:35.869Z,0.00
2022-12-27T04:35:35.794Z,0.00
2022-12-27T04:36:35.736Z,0.00
2022-12-27T04:37:35.651Z,0.00
2022-12-27T04:38:35.584Z,0.00
2022-12-27T04:39:35.524Z,0.00
2022-12-27T04:40:35.442Z,0.00
2022-12-27T04:41:35.392Z,0.00
2022-12-27T04:42:35.325Z,0.00
2022-12-27T04:43:35.237Z,0.00
2022-12-27T04:44:35.163Z,0.00
2022-12-27T04:45:35.097Z,0.00
2022-12-27T04:46:35.053Z,0.00
2022-12-27T04:47:34.952Z,0.00
2022-12-27T04:48:34.894Z,0.00
2022-12-27T04:49:34.825Z,0.00
2022-12-27T04:50:34.742Z,0.00
2022-12-27T04:51:34.672Z,0.00
2022-12-27T04:52:34.606Z,0.00
2022-12-27T04:53:34.543Z,0.00
2022-12-27T04:54:34.462Z,0.00
2022-12-27T04:55:34.399Z,0.00
2022-12-27T04:56:34.323Z,0.00
2022-12-27T04:57:34.276Z,0.00
2022-12-27T04:58:34.188Z,0.00
2022-12-27T04:59:34.110Z,0.00
2022-12-27T05:00:34.043Z,0.00
2022-12-27T05:01:34.061Z,0.00
2022-12-27T05:02:34.084Z,0.00
2022-12-27T05:03:33.860Z,0.00
2022-12-27T05:04:33.763Z,0.00
2022-12-27T05:05:33.698Z,0.00
2022-12-27T05:06:33.627Z,0.00
2022-12-27T05:07:33.595Z,0.00
2022-12-27T05:08:33.503Z,0.00
2022-12-27T05:09:33.414Z,0.00
2022-12-27T05:10:33.348Z,0.00
2022-12-27T05:11:33.297Z,0.00
2022-12-27T05:12:33.205Z,0.00
2022-12-27T05:13:33.131Z,0.00
2022-12-27T05:14:33.068Z,0.00
2022-12-27T05:15:33.017Z,0.00
2022-12-27T05:16:32.974Z,0.00
2022-12-27T05:17:32.867Z,0.00
2022-12-27T05:18:32.786Z,0.00
2022-12-27T05:19:32.782Z,0.00
2022-12-27T05:20:32.643Z,0.00
2022-12-27T05:21:32.577Z,0.00
2022-12-27T05:22:32.510Z,0.00
2022-12-27T05:23:32.455Z,0.00
2022-12-27T05:24:32.370Z,0.00
2022-12-27T05:25:32.293Z,0.00
2022-12-27T05:26:32.232Z,0.00
2022-12-27T05:27:32.153Z,0.00
2022-12-27T05:28:32.097Z,0.00
2022-12-27T05:29:32.026Z,0.00
2022-12-27T05:30:31.966Z,0.00
2022-12-27T05:31:31.969Z,0.00
2022-12-27T05:32:31.803Z,0.00
2022-12-27T05:33:31.738Z,0.00
2022-12-27T05:34:31.673Z,0.00
2022-12-27T05:35:31.600Z,0.00
2022-12-27T05:36:31.526Z,0.00
2022-12-27T05:37:31.453Z,0.00
2022-12-27T05:38:31.383Z,0.00
2022-12-27T05:39:31.315Z,0.00
2022-12-27T05:40:31.249Z,0.00
2022-12-27T05:41:31.235Z,0.00
2022-12-27T05:42:31.113Z,0.00
2022-12-27T05:43:31.035Z,0.00
2022-12-27T05:44:30.967Z,0.00
2022-12-27T05:45:30.899Z,0.00
2022-12-27T05:46:30.854Z,0.00
2022-12-27T05:47:30.760Z,0.00
2022-12-27T05:48:30.685Z,0.00
2022-12-27T05:49:30.619Z,0.00
2022-12-27T05:50:30.543Z,0.00
2022-12-27T05:51:30.479Z,0.00
2022-12-27T05:52:30.417Z,0.00
2022-12-27T05:53:30.338Z,0.00
2022-12-27T05:54:30.266Z,0.00
2022-12-27T05:55:30.201Z,0.00
2022-12-27T05:56:30.126Z,0.00
2022-12-27T05:57:30.061Z,0.00
2022-12-27T05:58:29.991Z,0.00
2022-12-27T05:59:29.926Z,0.00
2022-12-27T06:00:29.850Z,0.00
2022-12-27T06:01:29.852Z,0.00
2022-12-27T06:02:29.800Z,0.00
2022-12-27T06:03:29.845Z,0.00
2022-12-27T06:04:29.566Z,0.00
2022-12-27T06:05:29.511Z,0.00
2022-12-27T06:06:29.430Z,0.00
2022-12-27T06:07:29.388Z,0.00
2022-12-27T06:08:29.300Z,0.00
2022-12-27T06:09:29.221Z,0.00
2022-12-27T06:10:29.151Z,0.00
2022-12-27T06:11:29.092Z,0.00
2022-12-27T06:12:29.017Z,0.00
2022-12-27T06:13:28.941Z,0.00
2022-12-27T06:14:28.869Z,0.00
2022-12-27T06:15:28.801Z,0.00
2022-12-27T06:16:28.749Z,0.00
2022-12-27T06:17:28.664Z,0.00
2022-12-27T06:18:28.593Z,0.00
2022-12-27T06:19:28.520Z,0.00
2022-12-27T06:20:28.451Z,0.00
2022-12-27T06:21:28.387Z,0.00
2022-12-27T06:22:28.318Z,0.00
2022-12-27T06:23:28.248Z,0.00
2022-12-27T06:24:28.171Z,0.00
2022-12-27T06:25:28.107Z,0.00
2022-12-27T06:26:28.067Z,0.00
2022-12-27T06:27:27.965Z,0.00
2022-12-27T06:28:27.896Z,0.00
2022-12-27T06:29:27.825Z,0.00
2022-12-27T06:30:32.888Z,0.00
2022-12-27T06:31:27.731Z,0.00
2022-12-27T06:32:27.611Z,0.00
2022-12-27T06:33:27.542Z,0.00
2022-12-27T06:34:27.472Z,0.00
2022-12-27T06:35:27.409Z,0.00
2022-12-27T06:36:27.336Z,0.00
2022-12-27T06:37:27.265Z,4.00
2022-12-27T06:38:27.191Z,4.00
2022-12-27T06:39:27.137Z,0.00
2022-12-27T06:40:27.057Z,4.00
2022-12-27T06:41:27.040Z,4.00
2022-12-27T06:42:26.911Z,0.00
2022-12-27T06:43:26.852Z,4.00
2022-12-27T06:44:26.785Z,0.00
2022-12-27T06:45:26.809Z,0.00
2022-12-27T06:46:26.701Z,4.00
2022-12-27T06:47:26.565Z,0.00
2022-12-27T06:48:26.496Z,4.00
2022-12-27T06:49:26.425Z,4.00
2022-12-27T06:50:26.358Z,4.00
2022-12-27T06:51:26.296Z,4.00
2022-12-27T06:52:26.220Z,8.00
2022-12-27T06:53:26.146Z,4.00
2022-12-27T06:54:26.077Z,8.00
2022-12-27T06:55:26.014Z,12.00
2022-12-27T06:56:25.941Z,12.00
2022-12-27T06:57:25.868Z,16.00
2022-12-27T06:58:25.817Z,16.00
2022-12-27T06:59:25.728Z,20.00
2022-12-27T07:00:25.657Z,24.00
2022-12-27T07:01:25.707Z,32.00
2022-12-27T07:02:25.633Z,32.00
2022-12-27T07:03:25.454Z,36.00
2022-12-27T07:04:25.382Z,40.00
2022-12-27T07:05:25.311Z,48.00
2022-12-27T07:06:25.239Z,52.00
2022-12-27T07:07:25.196Z,56.00
2022-12-27T07:08:25.100Z,48.00
2022-12-27T07:09:25.036Z,56.00
2022-12-27T07:10:24.958Z,60.00
2022-12-27T07:11:24.899Z,60.00
2022-12-27T07:12:24.824Z,56.00
2022-12-27T07:13:24.753Z,52.00
2022-12-27T07:14:24.693Z,52.00
2022-12-27T07:15:24.640Z,48.00
2022-12-27T07:16:24.592Z,44.00
2022-12-27T07:17:24.475Z,44.00
2022-12-27T07:18:24.402Z,52.00
2022-12-27T07:19:24.336Z,52.00
2022-12-27T07:20:24.263Z,48.00
2022-12-27T07:21:24.199Z,56.00
2022-12-27T07:22:24.127Z,56.00
2022-12-27T07:23:24.070Z,48.00
2022-12-27T07:24:23.996Z,52.00
2022-12-27T07:25:23.922Z,60.00
2022-12-27T07:26:23.849Z,68.00
2022-12-27T07:27:23.857Z,72.00
2022-12-27T07:28:23.717Z,84.00
2022-12-27T07:29:23.643Z,88.00
2022-12-27T07:30:23.577Z,100.00
2022-12-27T07:31:23.536Z,104.00
2022-12-27T07:32:23.439Z,116.00
2022-12-27T07:33:23.361Z,164.00
2022-12-27T07:34:23.293Z,196.00
2022-12-27T07:35:23.239Z,248.00
2022-12-27T07:36:23.159Z,280.00
2022-12-27T07:37:23.085Z,300.00
2022-12-27T07:38:23.015Z,324.00
2022-12-27T07:39:22.978Z,344.00
2022-12-27T07:40:22.878Z,360.00
2022-12-27T07:41:22.815Z,336.00
2022-12-27T07:42:22.734Z,248.00
2022-12-27T07:43:22.677Z,240.00
2022-12-27T07:44:22.603Z,272.00
2022-12-27T07:45:22.530Z,320.00
2022-12-27T07:46:22.464Z,380.00
2022-12-27T07:47:22.392Z,416.00
2022-12-27T07:48:22.322Z,424.00
2022-12-27T07:49:22.256Z,376.00
2022-12-27T07:50:22.181Z,376.00
2022-12-27T07:51:22.115Z,404.00
2022-12-27T07:52:22.041Z,436.00
2022-12-27T07:53:21.977Z,520.00
2022-12-27T07:54:21.906Z,548.00
2022-12-27T07:55:21.838Z,416.00
2022-12-27T07:56:25.802Z,352.00
2022-12-27T07:57:21.703Z,332.00
2022-12-27T07:58:21.630Z,320.00
2022-12-27T07:59:21.568Z,316.00
2022-12-27T08:00:21.495Z,336.00
2022-12-27T08:01:21.516Z,340.00
2022-12-27T08:02:21.436Z,312.00
2022-12-27T08:03:21.314Z,296.00
2022-12-27T08:04:21.220Z,320.00
2022-12-27T08:05:25.951Z,340.00
2022-12-27T08:06:21.081Z,440.00
2022-12-27T08:07:21.024Z,504.00
2022-12-27T08:08:20.940Z,572.00
2022-12-27T08:09:20.882Z,600.00
2022-12-27T08:10:20.806Z,608.00
2022-12-27T08:11:20.742Z,600.00
2022-12-27T08:12:20.660Z,572.00
2022-12-27T08:13:20.597Z,524.00
2022-12-27T08:14:20.520Z,508.00
2022-12-27T08:15:20.455Z,500.00
2022-12-27T08:16:20.430Z,480.00
2022-12-27T08:17:20.366Z,444.00
2022-12-27T08:18:20.247Z,344.00
2022-12-27T08:19:20.188Z,336.00
2022-12-27T08:20:20.127Z,348.00
2022-12-27T08:21:20.045Z,364.00
2022-12-27T08:22:19.976Z,452.00
2022-12-27T08:23:19.911Z,432.00
2022-12-27T08:24:19.829Z,408.00
2022-12-27T08:25:19.765Z,436.00
2022-12-27T08:26:19.696Z,492.00
2022-12-27T08:27:19.627Z,568.00
2022-12-27T08:28:19.553Z,632.00
2022-12-27T08:29:19.500Z,664.00
2022-12-27T08:30:19.415Z,756.00
2022-12-27T08:31:19.395Z,708.00
2022-12-27T08:32:19.295Z,508.00
2022-12-27T08:33:19.210Z,320.00
2022-12-27T08:34:19.140Z,256.00
2022-12-27T08:35:50.991Z,288.00
2022-12-27T08:37:18.966Z,332.00
2022-12-27T08:38:18.867Z,320.00
2022-12-27T08:39:18.795Z,324.00
2022-12-27T08:40:18.734Z,316.00
2022-12-27T08:41:18.660Z,316.00
2022-12-27T08:42:18.586Z,320.00
2022-12-27T08:43:18.526Z,260.00
2022-12-27T08:44:18.452Z,232.00
2022-12-27T08:45:18.385Z,248.00
2022-12-27T08:46:18.341Z,220.00
2022-12-27T08:47:18.253Z,180.00
2022-12-27T08:48:18.264Z,180.00
2022-12-27T08:49:18.114Z,268.00
2022-12-27T08:50:18.043Z,376.00
2022-12-27T08:51:26.580Z,432.00
2022-12-27T08:52:17.901Z,432.00
2022-12-27T08:53:17.837Z,356.00
2022-12-27T08:54:17.762Z,304.00
2022-12-27T08:55:17.694Z,312.00
2022-12-27T08:56:17.623Z,332.00
2022-12-27T08:57:17.563Z,328.00
2022-12-27T08:58:17.489Z,340.00
2022-12-27T08:59:17.427Z,372.00
2022-12-27T09:00:17.356Z,444.00
2022-12-27T09:01:17.435Z,496.00
2022-12-27T09:02:17.303Z,432.00
2022-12-27T09:03:17.212Z,296.00
2022-12-27T09:04:17.076Z,344.00
2022-12-27T09:05:17.012Z,480.00
2022-12-27T09:06:16.933Z,632.00
2022-12-27T09:07:16.867Z,792.00
2022-12-27T09:08:16.806Z,1004.00
2022-12-27T09:09:16.728Z,1164.00
2022-12-27T09:10:16.656Z,1228.00
2022-12-27T09:11:16.592Z,1236.00
2022-12-27T09:12:16.519Z,1192.00
2022-12-27T09:13:16.455Z,1260.00
2022-12-27T09:14:16.390Z,1348.00
2022-12-27T09:15:16.319Z,1180.00
2022-12-27T09:16:16.260Z,932.00
2022-12-27T09:17:16.179Z,652.00
2022-12-27T09:18:16.112Z,608.00
2022-12-27T09:19:16.043Z,716.00
2022-12-27T09:20:15.971Z,856.00
2022-12-27T09:21:15.909Z,908.00
2022-12-27T09:22:15.833Z,812.00
2022-12-27T09:23:15.765Z,680.00
2022-12-27T09:24:15.698Z,612.00
2022-12-27T09:25:15.629Z,628.00
2022-12-27T09:26:15.558Z,672.00
2022-12-27T09:27:15.499Z,748.00
2022-12-27T09:28:15.422Z,856.00
2022-12-27T09:29:15.365Z,1032.00
2022-12-27T09:30:15.286Z,1456.00
2022-12-27T09:31:15.248Z,1620.00
2022-12-27T09:32:15.160Z,1944.00
2022-12-27T09:33:15.082Z,7392.00
2022-12-27T09:34:15.015Z,8368.00
2022-12-27T09:35:14.958Z,8576.00
2022-12-27T09:36:14.882Z,8796.00
2022-12-27T09:37:14.810Z,8016.00
2022-12-27T09:38:14.742Z,8200.00
2022-12-27T09:39:14.673Z,7816.00
2022-12-27T09:40:14.612Z,5952.00
2022-12-27T09:41:19.257Z,7416.00
2022-12-27T09:43:22.566Z,1652.00
2022-12-27T09:44:14.337Z,1868.00
2022-12-27T09:45:14.273Z,2184.00
2022-12-27T09:46:14.291Z,2120.00
2022-12-27T09:47:14.149Z,2124.00
2022-12-27T09:48:14.084Z,1576.00
2022-12-27T09:49:14.023Z,1384.00
2022-12-27T09:50:13.955Z,1328.00
2022-12-27T09:51:13.882Z,1260.00
2022-12-27T09:52:13.817Z,1344.00
2022-12-27T09:53:13.760Z,1316.00
2022-12-27T09:54:13.689Z,1332.00
2022-12-27T09:55:13.615Z,1428.00
2022-12-27T09:56:13.546Z,1460.00
2022-12-27T09:57:20.980Z,1460.00
2022-12-27T09:58:13.418Z,1388.00
2022-12-27T09:59:13.345Z,1412.00
2022-12-27T10:00:13.279Z,1172.00
2022-12-27T10:01:13.342Z,1068.00
2022-12-27T10:02:13.251Z,1020.00
2022-12-27T10:03:13.080Z,888.00
2022-12-27T10:04:13.066Z,780.00
2022-12-27T10:06:12.891Z,672.00
2022-12-27T10:07:12.815Z,804.00
2022-12-27T10:08:12.742Z,896.00
2022-12-27T10:09:12.675Z,928.00
2022-12-27T10:10:12.606Z,996.00
2022-12-27T10:11:12.542Z,1040.00
2022-12-27T10:12:12.511Z,1116.00
2022-12-27T10:13:12.421Z,1140.00
2022-12-27T10:14:12.339Z,1152.00
2022-12-27T10:15:12.270Z,1252.00
2022-12-27T10:16:12.241Z,1380.00
2022-12-27T10:17:12.134Z,1528.00
2022-12-27T10:18:12.068Z,1836.00
2022-12-27T10:19:12.044Z,2160.00
2022-12-27T10:20:11.935Z,2496.00
2022-12-27T10:21:11.871Z,2736.00
2022-12-27T10:22:11.809Z,2568.00
2022-12-27T10:23:11.731Z,4304.00
2022-12-27T10:24:11.663Z,4652.00
2022-12-27T10:25:11.594Z,2436.00
2022-12-27T10:26:11.543Z,2276.00
2022-12-27T10:27:11.470Z,2088.00
2022-12-27T10:28:11.404Z,2888.00
2022-12-27T10:29:11.331Z,1884.00
2022-12-27T10:30:11.262Z,2568.00
2022-12-27T10:31:11.242Z,2012.00
2022-12-27T10:32:11.152Z,1860.00
2022-12-27T10:33:11.054Z,1684.00
2022-12-27T10:34:11.101Z,1680.00
2022-12-27T10:35:10.930Z,1652.00
2022-12-27T10:36:10.862Z,1520.00
2022-12-27T10:37:10.792Z,1684.00
2022-12-27T10:38:10.726Z,1840.00
2022-12-27T10:39:10.660Z,1800.00
2022-12-27T10:40:10.615Z,1800.00
2022-12-27T10:41:10.530Z,1596.00
2022-12-27T10:42:10.456Z,1520.00
2022-12-27T10:43:10.393Z,1500.00
2022-12-27T10:44:10.324Z,1164.00
2022-12-27T10:45:10.259Z,1068.00
2022-12-27T10:46:10.225Z,956.00
2022-12-27T10:47:10.157Z,848.00
2022-12-27T10:48:10.060Z,688.00
2022-12-27T10:49:25.247Z,704.00
2022-12-27T10:50:09.920Z,768.00
2022-12-27T10:51:09.872Z,888.00
2022-12-27T10:52:09.794Z,848.00
2022-12-27T10:53:09.724Z,888.00
2022-12-27T10:54:09.656Z,1072.00
2022-12-27T10:55:09.584Z,960.00
2022-12-27T10:56:09.533Z,940.00
2022-12-27T10:57:09.454Z,1044.00
2022-12-27T10:58:09.395Z,1012.00
2022-12-27T10:59:09.316Z,1188.00
2022-12-27T11:00:09.245Z,1264.00
2022-12-27T11:01:09.210Z,1252.00
2022-12-27T11:02:09.225Z,1240.00
2022-12-27T11:03:09.154Z,1228.00
2022-12-27T11:04:11.847Z,1168.00
2022-12-27T11:05:08.909Z,1160.00
2022-12-27T11:06:08.845Z,984.00
2022-12-27T11:07:08.773Z,936.00
2022-12-27T11:08:08.711Z,932.00
2022-12-27T11:09:08.639Z,808.00
2022-12-27T11:10:08.579Z,796.00
2022-12-27T11:11:08.504Z,796.00
2022-12-27T11:12:08.440Z,904.00
2022-12-27T11:13:08.369Z,956.00
2022-12-27T11:14:08.305Z,904.00
2022-12-27T11:15:08.240Z,1036.00
2022-12-27T11:16:08.183Z,1084.00
2022-12-27T11:17:08.097Z,860.00
2022-12-27T11:18:08.031Z,688.00
2022-12-27T11:19:07.964Z,648.00
2022-12-27T11:20:07.903Z,792.00
2022-12-27T11:21:09.628Z,808.00
2022-12-27T11:22:07.760Z,908.00
2022-12-27T11:23:07.692Z,988.00
2022-12-27T11:24:07.628Z,1028.00
2022-12-27T11:25:07.554Z,1160.00
2022-12-27T11:26:07.486Z,1060.00
2022-12-27T11:27:07.428Z,1104.00
2022-12-27T11:28:07.361Z,1056.00
2022-12-27T11:29:07.288Z,1040.00
2022-12-27T11:30:07.220Z,1152.00
2022-12-27T11:31:07.192Z,1324.00
2022-12-27T11:32:07.087Z,1492.00
2022-12-27T11:33:07.023Z,1520.00
2022-12-27T11:34:06.949Z,1468.00
2022-12-27T11:35:06.880Z,1540.00
2022-12-27T11:36:06.812Z,1568.00
2022-12-27T11:37:06.750Z,1588.00
2022-12-27T11:38:06.676Z,1652.00
2022-12-27T11:39:06.607Z,1664.00
2022-12-27T11:40:06.541Z,1612.00
2022-12-27T11:41:06.473Z,1588.00
2022-12-27T11:42:06.407Z,1592.00
2022-12-27T11:43:06.357Z,1668.00
2022-12-27T11:44:06.279Z,1756.00
2022-12-27T11:45:06.198Z,1840.00
2022-12-27T11:46:06.178Z,1848.00
2022-12-27T11:47:06.127Z,1712.00
2022-12-27T11:48:06.019Z,1568.00
2022-12-27T11:49:05.932Z,1444.00
2022-12-27T11:50:05.862Z,1268.00
2022-12-27T11:51:05.810Z,1104.00
2022-12-27T11:52:05.737Z,916.00
2022-12-27T11:53:05.669Z,876.00
2022-12-27T11:54:05.606Z,892.00
2022-12-27T11:55:05.528Z,852.00
2022-12-27T11:56:05.463Z,772.00
2022-12-27T11:57:05.403Z,696.00
2022-12-27T11:58:05.326Z,728.00
2022-12-27T11:59:05.260Z,776.00
2022-12-27T12:00:05.200Z,988.00
2022-12-27T12:01:05.628Z,1024.00
2022-12-27T12:02:05.146Z,928.00
2022-12-27T12:03:05.047Z,1148.00
2022-12-27T12:04:04.921Z,1368.00
2022-12-27T12:05:04.903Z,1420.00
2022-12-27T12:06:04.784Z,1360.00
2022-12-27T12:07:04.716Z,1244.00
2022-12-27T12:08:04.669Z,1304.00
2022-12-27T12:09:04.579Z,1240.00
2022-12-27T12:10:04.518Z,1036.00
2022-12-27T12:11:04.446Z,868.00
2022-12-27T12:12:04.391Z,844.00
2022-12-27T12:13:04.315Z,892.00
2022-12-27T12:14:04.255Z,928.00
2022-12-27T12:15:04.185Z,964.00
2022-12-27T12:16:04.171Z,948.00
2022-12-27T12:17:04.043Z,976.00
2022-12-27T12:18:03.984Z,1060.00
2022-12-27T12:19:03.921Z,1148.00
2022-12-27T12:20:03.845Z,1188.00
2022-12-27T12:21:03.769Z,1176.00
2022-12-27T12:22:03.704Z,1012.00
2022-12-27T12:23:03.643Z,936.00
2022-12-27T12:24:03.572Z,1012.00
2022-12-27T12:25:03.502Z,1368.00
2022-12-27T12:26:03.449Z,1132.00
2022-12-27T12:27:03.382Z,1360.00
2022-12-27T12:28:09.742Z,1220.00
2022-12-27T12:29:03.235Z,1276.00
2022-12-27T12:30:03.170Z,1268.00
2022-12-27T12:31:03.094Z,1248.00
2022-12-27T12:32:03.080Z,1588.00
2022-12-27T12:33:02.968Z,1776.00
2022-12-27T12:34:02.892Z,2016.00
2022-12-27T12:35:02.826Z,1900.00
2022-12-27T12:36:02.768Z,1540.00
2022-12-27T12:37:02.693Z,1564.00
2022-12-27T12:38:02.638Z,1864.00
2022-12-27T12:39:02.592Z,1972.00
2022-12-27T12:40:02.495Z,1620.00
2022-12-27T12:41:02.423Z,1520.00
2022-12-27T12:42:02.365Z,1744.00
2022-12-27T12:43:02.287Z,1332.00
2022-12-27T12:44:02.221Z,1592.00
2022-12-27T12:45:02.155Z,1704.00
2022-12-27T12:46:02.159Z,1256.00
2022-12-27T12:47:02.019Z,1144.00
2022-12-27T12:48:01.951Z,992.00
2022-12-27T12:49:01.887Z,908.00
2022-12-27T12:50:01.826Z,936.00
2022-12-27T12:51:01.749Z,928.00
2022-12-27T12:52:01.689Z,940.00
2022-12-27T12:53:01.623Z,956.00